Time;durP1;ratioP1;P1;durP2;ratioP2;P2;SDS_P1;SDS_P2;PMS_P1;PMS_P2;Temp;Humidity;BMP_temperature;BMP_pressure;BME280_temperature;BME280_humidity;BME280_pressure;Samples;Min_cycle;Max_cycle;Signal;HPM_P1;HPM_P2
2023/11/24 00:01:49;;;;;;;2.75;0.57;;;9.20;91.90;;;;;;5095386;28;20050;-76
2023/11/24 00:04:14;;;;;;;2.33;0.80;;;9.10;91.80;;;;;;5113458;28;20070;-76
2023/11/24 00:06:41;;;;;;;2.28;0.65;;;9.00;91.80;;;;;;5078417;28;20043;-77
2023/11/24 00:09:07;;;;;;;3.45;0.95;;;8.80;91.80;;;;;;5078549;28;20036;-76
2023/11/24 00:11:34;;;;;;;2.60;0.60;;;8.80;91.90;;;;;;5093769;28;20560;-77
2023/11/24 00:14:00;;;;;;;1.75;0.32;;;8.70;91.90;;;;;;5113307;28;20050;-76
2023/11/24 00:16:26;;;;;;;2.80;0.80;;;8.70;91.90;;;;;;5094995;28;20397;-76
2023/11/24 00:18:51;;;;;;;1.55;0.50;;;8.60;91.90;;;;;;5078047;28;20437;-76
2023/11/24 00:21:17;;;;;;;1.02;0.45;;;8.60;91.90;;;;;;5078511;28;20078;-76
2023/11/24 00:23:43;;;;;;;0.50;0.40;;;8.60;92.00;;;;;;5077965;28;20118;-76
2023/11/24 00:26:09;;;;;;;0.82;0.30;;;8.50;92.00;;;;;;5113542;28;20036;-76
2023/11/24 00:28:36;;;;;;;1.85;0.40;;;8.40;92.00;;;;;;5113283;28;20039;-75
2023/11/24 00:31:05;;;;;;;1.08;0.45;;;8.40;92.00;;;;;;5078171;28;20039;-76
2023/11/24 00:33:31;;;;;;;1.67;0.50;;;8.40;92.00;;;;;;5095447;28;20042;-76
2023/11/24 00:35:57;;;;;;;2.53;0.50;;;8.40;92.00;;;;;;5113097;28;20039;-77
2023/11/24 00:38:22;;;;;;;1.42;0.40;;;8.40;91.90;;;;;;5095027;28;20508;-77
2023/11/24 00:40:50;;;;;;;1.88;0.60;;;8.50;91.80;;;;;;5093215;28;20047;-76
2023/11/24 00:43:16;;;;;;;0.55;0.30;;;8.50;91.70;;;;;;5112978;28;20043;-76
2023/11/24 00:45:41;;;;;;;0.40;0.30;;;8.50;91.70;;;;;;5113369;28;20039;-76
2023/11/24 00:48:07;;;;;;;2.65;0.40;;;8.50;91.70;;;;;;5112885;28;20047;-77
2023/11/24 00:50:34;;;;;;;1.77;0.50;;;8.40;91.60;;;;;;5094392;28;20105;-76
2023/11/24 00:53:01;;;;;;;0.85;0.38;;;8.50;91.60;;;;;;5078321;28;20050;-76
2023/11/24 00:55:27;;;;;;;1.60;0.40;;;8.50;91.50;;;;;;5077580;28;20036;-76
2023/11/24 00:57:53;;;;;;;1.88;0.40;;;8.50;91.50;;;;;;5077638;28;20116;-76
2023/11/24 01:00:19;;;;;;;2.70;0.45;;;8.50;91.50;;;;;;5113198;28;20059;-76
2023/11/24 01:02:45;;;;;;;3.65;0.45;;;8.50;91.50;;;;;;5077362;28;20051;-76
2023/11/24 01:05:11;;;;;;;1.85;0.57;;;8.50;91.50;;;;;;5112362;28;20039;-76
2023/11/24 01:07:37;;;;;;;1.40;0.22;;;8.50;91.40;;;;;;5094085;28;20130;-76
2023/11/24 01:10:03;;;;;;;0.55;0.30;;;8.50;91.40;;;;;;5077813;28;20075;-76
2023/11/24 01:12:29;;;;;;;0.38;0.20;;;8.50;91.40;;;;;;5112370;28;20066;-76
2023/11/24 01:14:55;;;;;;;1.58;0.43;;;8.50;91.40;;;;;;5112416;28;20489;-76
2023/11/24 01:17:21;;;;;;;1.27;0.30;;;8.40;91.40;;;;;;5095807;28;20074;-76
2023/11/24 01:19:47;;;;;;;0.40;0.30;;;8.40;91.50;;;;;;5097583;28;20059;-76
2023/11/24 01:22:12;;;;;;;0.70;0.22;;;8.30;91.50;;;;;;5096677;28;20549;-76
2023/11/24 01:24:38;;;;;;;0.85;0.20;;;8.30;91.50;;;;;;5079355;28;20036;-76
2023/11/24 01:27:04;;;;;;;0.30;0.28;;;8.30;91.70;;;;;;5097402;28;20095;-76
2023/11/24 01:29:31;;;;;;;1.17;0.32;;;8.20;91.50;;;;;;5097345;28;20044;-76
2023/11/24 01:31:57;;;;;;;0.43;0.20;;;8.30;91.60;;;;;;5115526;28;20124;-77
2023/11/24 01:34:24;;;;;;;1.08;0.55;;;8.20;91.60;;;;;;5115999;28;20044;-76
2023/11/24 01:36:50;;;;;;;0.30;0.30;;;8.20;91.60;;;;;;5063935;28;20047;-76
2023/11/24 01:39:17;;;;;;;0.77;0.30;;;8.20;91.60;;;;;;5097321;28;20500;-77
2023/11/24 01:41:43;;;;;;;1.00;0.47;;;8.20;91.60;;;;;;5115600;28;20043;-76
2023/11/24 01:44:09;;;;;;;1.13;0.30;;;8.20;91.60;;;;;;5095321;28;20032;-76
2023/11/24 01:46:35;;;;;;;1.00;0.20;;;8.10;91.60;;;;;;5115197;28;20371;-76
2023/11/24 01:49:03;;;;;;;0.63;0.40;;;8.10;91.60;;;;;;5079423;28;20050;-76
2023/11/24 01:51:29;;;;;;;1.65;0.40;;;8.10;91.60;;;;;;5080130;28;20089;-76
2023/11/24 01:53:55;;;;;;;2.45;0.40;;;8.10;91.60;;;;;;5115571;28;20467;-76
2023/11/24 01:56:21;;;;;;;0.93;0.38;;;8.00;91.50;;;;;;5097770;28;20123;-76
2023/11/24 01:58:48;;;;;;;2.63;0.30;;;8.00;91.50;;;;;;5115637;28;20534;-76
2023/11/24 02:01:13;;;;;;;0.77;0.25;;;8.00;91.50;;;;;;5097197;28;20080;-77
2023/11/24 02:03:40;;;;;;;0.65;0.30;;;8.00;91.60;;;;;;5095248;28;20040;-75
2023/11/24 02:06:08;;;;;;;1.63;0.30;;;7.90;91.60;;;;;;5096904;28;20055;-76
2023/11/24 02:08:34;;;;;;;1.27;0.40;;;7.80;91.60;;;;;;5080596;28;20369;-77
2023/11/24 02:11:00;;;;;;;0.38;0.20;;;7.90;91.70;;;;;;5078990;28;20379;-77
2023/11/24 02:13:27;;;;;;;1.80;0.30;;;7.80;91.70;;;;;;5078265;28;20133;-76
2023/11/24 02:15:53;;;;;;;0.60;0.35;;;7.80;91.60;;;;;;5096799;28;20401;-76
2023/11/24 02:18:19;;;;;;;1.73;0.40;;;7.80;91.70;;;;;;5079871;28;20496;-76
2023/11/24 02:20:46;;;;;;;0.38;0.38;;;7.70;91.60;;;;;;5095393;28;20117;-75
2023/11/24 02:23:12;;;;;;;1.13;0.30;;;7.80;91.60;;;;;;5079792;28;20039;-76
2023/11/24 02:25:38;;;;;;;0.70;0.28;;;7.80;91.60;;;;;;5096393;28;20504;-76
2023/11/24 02:28:04;;;;;;;0.35;0.30;;;7.80;91.60;;;;;;5096569;28;20039;-76
2023/11/24 02:30:30;;;;;;;0.20;0.20;;;7.70;91.60;;;;;;5063087;28;20035;-76
2023/11/24 02:32:56;;;;;;;1.10;0.30;;;7.70;91.70;;;;;;5079495;28;20043;-76
2023/11/24 02:35:21;;;;;;;0.60;0.20;;;7.60;91.70;;;;;;5096278;28;20167;-76
2023/11/24 02:37:47;;;;;;;1.25;0.30;;;7.60;91.70;;;;;;5095120;28;20044;-76
2023/11/24 02:40:13;;;;;;;0.77;0.40;;;7.60;91.70;;;;;;5096331;28;20409;-75
2023/11/24 02:42:39;;;;;;;1.63;0.30;;;7.50;91.70;;;;;;5115217;28;20035;-76
2023/11/24 02:45:06;;;;;;;1.02;0.30;;;7.50;91.70;;;;;;5095186;28;20047;-76
2023/11/24 02:47:32;;;;;;;2.00;0.38;;;7.60;91.70;;;;;;5114434;28;20044;-76
2023/11/24 02:49:57;;;;;;;1.08;0.30;;;7.40;91.70;;;;;;5096130;28;20048;-76
2023/11/24 02:52:23;;;;;;;1.40;0.30;;;7.50;91.70;;;;;;5096357;28;20851;-76
2023/11/24 02:54:52;;;;;;;3.00;0.50;;;7.60;91.70;;;;;;5095950;28;20076;-76
2023/11/24 02:57:19;;;;;;;0.30;0.30;;;7.50;91.60;;;;;;5079494;28;20036;-76
2023/11/24 02:59:44;;;;;;;1.73;0.70;;;7.60;91.60;;;;;;5096112;28;20477;-76
2023/11/24 03:02:10;;;;;;;1.42;0.40;;;7.50;91.60;;;;;;5078946;28;20057;-76
2023/11/24 03:04:37;;;;;;;0.50;0.20;;;7.50;91.60;;;;;;5095895;28;20043;-76
2023/11/24 03:07:04;;;;;;;0.68;0.40;;;7.50;91.60;;;;;;5079115;28;20513;-76
2023/11/24 03:09:31;;;;;;;0.35;0.20;;;7.50;91.60;;;;;;5114090;28;20126;-76
2023/11/24 03:11:58;;;;;;;1.67;0.38;;;7.40;91.60;;;;;;5062555;28;20059;-76
2023/11/24 03:14:23;;;;;;;0.63;0.38;;;7.50;91.60;;;;;;5095799;28;20152;-76
2023/11/24 03:16:50;;;;;;;2.03;0.43;;;7.50;91.60;;;;;;5062045;28;20044;-76
2023/11/24 03:19:16;;;;;;;2.95;0.32;;;7.50;91.60;;;;;;5113790;28;20389;-76
2023/11/24 03:21:44;;;;;;;2.75;0.30;;;7.40;91.50;;;;;;5079371;28;20043;-76
2023/11/24 03:24:09;;;;;;;1.15;0.28;;;7.40;91.50;;;;;;5096116;28;20419;-76
2023/11/24 03:26:36;;;;;;;1.50;0.30;;;7.40;91.50;;;;;;5113982;28;20127;-76
2023/11/24 03:29:02;;;;;;;0.75;0.28;;;7.40;91.50;;;;;;5114189;28;20050;-76
2023/11/24 03:31:28;;;;;;;0.82;0.30;;;7.30;91.50;;;;;;5078787;28;20071;-76
2023/11/24 03:33:54;;;;;;;2.30;0.30;;;7.40;91.60;;;;;;5114291;28;20504;-75
2023/11/24 03:36:20;;;;;;;0.38;0.22;;;7.30;91.50;;;;;;5076756;28;20131;-76
2023/11/24 03:38:45;;;;;;;0.60;0.40;;;7.40;91.60;;;;;;5114007;28;20115;-76
2023/11/24 03:41:11;;;;;;;0.63;0.38;;;7.40;91.60;;;;;;5077887;28;20076;-76
2023/11/24 03:43:37;;;;;;;0.70;0.30;;;7.40;91.50;;;;;;5114070;28;20039;-76
2023/11/24 03:46:03;;;;;;;2.08;0.30;;;7.40;91.50;;;;;;5114291;28;20047;-76
2023/11/24 03:48:30;;;;;;;1.67;0.50;;;7.40;91.40;;;;;;5113634;28;20863;-76
2023/11/24 03:50:56;;;;;;;1.10;0.30;;;7.50;91.40;;;;;;5113863;28;20062;-76
2023/11/24 03:53:21;;;;;;;2.92;0.55;;;7.50;91.30;;;;;;5095371;28;20485;-76
2023/11/24 03:55:47;;;;;;;0.40;0.35;;;7.60;91.20;;;;;;5095171;28;20059;-76
2023/11/24 03:58:14;;;;;;;0.85;0.47;;;7.60;91.20;;;;;;5094688;28;20036;-76
2023/11/24 04:00:40;;;;;;;1.55;0.40;;;7.60;91.20;;;;;;5095928;28;20134;-77
2023/11/24 04:03:05;;;;;;;1.15;0.43;;;7.50;91.10;;;;;;5095158;28;20067;-76
2023/11/24 04:05:31;;;;;;;1.30;0.28;;;7.50;91.20;;;;;;5113308;28;20515;-76
2023/11/24 04:07:57;;;;;;;0.95;0.40;;;7.50;91.20;;;;;;5078012;28;20044;-76
2023/11/24 04:10:24;;;;;;;0.52;0.20;;;7.40;91.20;;;;;;5113216;28;20042;-76
2023/11/24 04:12:51;;;;;;;0.30;0.20;;;7.40;91.30;;;;;;5078121;28;20036;-77
2023/11/24 04:15:17;;;;;;;0.40;0.20;;;7.40;91.30;;;;;;5078077;28;20086;-77
2023/11/24 04:17:43;;;;;;;0.30;0.30;;;7.40;91.40;;;;;;5095138;28;20075;-78
2023/11/24 04:20:09;;;;;;;0.45;0.22;;;7.40;91.40;;;;;;5113466;28;20035;-76
2023/11/24 04:22:36;;;;;;;0.20;0.20;;;7.40;91.40;;;;;;5113452;28;20085;-76
2023/11/24 04:25:04;;;;;;;0.25;0.25;;;7.50;91.40;;;;;;5094184;28;20044;-76
2023/11/24 04:27:30;;;;;;;0.65;0.25;;;7.40;91.40;;;;;;5113046;28;20040;-76
2023/11/24 04:29:56;;;;;;;0.68;0.32;;;7.40;91.30;;;;;;5094533;28;20446;-76
2023/11/24 04:32:22;;;;;;;0.45;0.20;;;7.50;91.40;;;;;;5094893;28;20114;-76
2023/11/24 04:34:48;;;;;;;0.73;0.40;;;7.40;91.30;;;;;;5094466;28;20393;-76
2023/11/24 04:37:13;;;;;;;1.13;0.32;;;7.40;91.30;;;;;;5112904;28;20042;-76
2023/11/24 04:39:39;;;;;;;1.15;0.38;;;7.40;91.30;;;;;;5092305;28;20080;-76
2023/11/24 04:42:06;;;;;;;1.42;0.40;;;7.30;91.30;;;;;;5094538;28;20050;-78
2023/11/24 04:44:32;;;;;;;0.50;0.30;;;7.30;91.40;;;;;;5078049;28;20036;-76
2023/11/24 04:46:59;;;;;;;2.67;0.43;;;7.30;91.40;;;;;;5112756;28;20039;-76
2023/11/24 04:49:25;;;;;;;1.60;0.22;;;7.30;91.40;;;;;;5094731;28;20138;-76
2023/11/24 04:51:52;;;;;;;0.35;0.20;;;7.20;91.30;;;;;;5094244;28;20081;-76
2023/11/24 04:54:17;;;;;;;1.55;0.40;;;7.20;91.30;;;;;;5094405;28;20037;-77
2023/11/24 04:56:43;;;;;;;1.33;0.30;;;7.30;91.30;;;;;;5112473;28;20439;-76
2023/11/24 04:59:09;;;;;;;1.15;0.38;;;7.40;91.30;;;;;;5077483;28;20031;-76
2023/11/24 05:01:34;;;;;;;1.38;0.30;;;7.30;91.20;;;;;;5078184;28;20089;-75
2023/11/24 05:04:00;;;;;;;1.45;0.40;;;7.30;91.20;;;;;;5061029;28;20489;-76
2023/11/24 05:06:26;;;;;;;1.48;0.40;;;7.30;91.20;;;;;;5094305;28;20401;-77
2023/11/24 05:08:52;;;;;;;0.20;0.20;;;7.30;91.10;;;;;;5093674;28;20051;-76
2023/11/24 05:11:18;;;;;;;1.30;0.30;;;7.30;91.10;;;;;;5094291;28;20040;-76
2023/11/24 05:13:44;;;;;;;0.82;0.30;;;7.20;91.00;;;;;;5094840;28;20050;-76
2023/11/24 05:16:10;;;;;;;1.02;0.40;;;7.30;91.10;;;;;;5112719;28;20046;-76
2023/11/24 05:18:36;;;;;;;0.85;0.20;;;7.20;91.10;;;;;;5094241;28;20032;-76
2023/11/24 05:21:02;;;;;;;2.63;0.30;;;7.30;91.10;;;;;;5112465;28;20101;-76
2023/11/24 05:23:28;;;;;;;0.70;0.20;;;7.20;91.00;;;;;;5112334;28;20032;-75
2023/11/24 05:25:54;;;;;;;1.98;0.35;;;7.30;91.00;;;;;;5094059;28;20044;-78
2023/11/24 05:28:20;;;;;;;1.02;0.30;;;7.20;91.00;;;;;;5112775;28;20476;-76
2023/11/24 05:30:46;;;;;;;2.60;0.47;;;7.20;91.00;;;;;;5112549;28;20396;-76
2023/11/24 05:33:12;;;;;;;0.47;0.13;;;7.20;91.00;;;;;;5077159;28;20047;-76
2023/11/24 05:35:38;;;;;;;0.98;0.20;;;7.20;91.00;;;;;;5077281;28;20082;-76
2023/11/24 05:38:04;;;;;;;1.20;0.30;;;7.20;91.00;;;;;;5094141;28;20036;-76
2023/11/24 05:40:29;;;;;;;1.45;0.40;;;7.20;91.00;;;;;;5077098;28;20039;-76
2023/11/24 05:42:55;;;;;;;0.65;0.30;;;7.20;91.00;;;;;;5093385;28;20489;-76
2023/11/24 05:45:21;;;;;;;1.27;0.50;;;7.20;91.00;;;;;;5093935;28;20176;-77
2023/11/24 05:47:47;;;;;;;2.55;0.47;;;7.20;90.90;;;;;;5075079;28;20040;-76
2023/11/24 05:50:22;;;;;;;1.33;0.30;;;7.20;90.90;;;;;;5093859;28;20039;-76
2023/11/24 05:52:48;;;;;;;0.52;0.40;;;7.10;90.90;;;;;;5112303;28;20051;-76
2023/11/24 05:55:15;;;;;;;1.98;0.32;;;7.10;90.90;;;;;;5093448;28;20039;-77
2023/11/24 05:57:41;;;;;;;2.30;0.50;;;7.10;90.90;;;;;;5093886;28;20039;-76
2023/11/24 06:00:08;;;;;;;1.75;0.65;;;7.00;90.90;;;;;;5094274;28;20039;-76
2023/11/24 06:02:34;;;;;;;2.95;0.43;;;7.00;91.00;;;;;;5094275;28;20097;-76
2023/11/24 06:05:00;;;;;;;0.85;0.35;;;7.00;91.00;;;;;;5115560;28;20036;-77
2023/11/24 06:07:26;;;;;;;1.27;0.32;;;6.90;91.00;;;;;;5097111;28;20039;-77
2023/11/24 06:09:52;;;;;;;1.60;0.40;;;6.90;91.00;;;;;;5097441;28;20040;-77
2023/11/24 06:12:18;;;;;;;1.38;0.45;;;6.90;91.10;;;;;;5061467;28;20493;-77
2023/11/24 06:14:44;;;;;;;1.08;0.30;;;6.90;91.10;;;;;;5115898;28;20366;-78
2023/11/24 06:17:09;;;;;;;3.00;0.55;;;6.90;91.20;;;;;;5115340;28;20172;-77
2023/11/24 06:19:35;;;;;;;1.55;0.40;;;6.80;91.20;;;;;;5116067;28;20130;-78
2023/11/24 06:22:02;;;;;;;1.17;0.30;;;6.80;91.20;;;;;;5079725;28;20032;-75
2023/11/24 06:24:28;;;;;;;0.75;0.28;;;6.80;91.20;;;;;;5081567;28;20027;-77
2023/11/24 06:26:53;;;;;;;0.40;0.20;;;6.80;91.20;;;;;;5079946;28;20050;-77
2023/11/24 06:29:19;;;;;;;1.45;0.28;;;6.70;91.20;;;;;;5094826;28;20055;-78
2023/11/24 06:31:45;;;;;;;2.50;0.52;;;6.70;91.30;;;;;;5115165;28;20104;-77
2023/11/24 06:34:10;;;;;;;2.63;0.38;;;6.70;91.40;;;;;;5115024;28;20047;-77
2023/11/24 06:36:36;;;;;;;1.02;0.38;;;6.70;91.40;;;;;;5061132;28;20127;-77
2023/11/24 06:39:09;;;;;;;0.70;0.20;;;6.70;91.50;;;;;;5114566;28;20077;-77
2023/11/24 06:41:35;;;;;;;1.45;0.25;;;6.70;91.50;;;;;;5081448;28;20126;-77
2023/11/24 06:44:00;;;;;;;0.25;0.25;;;6.70;91.50;;;;;;5097331;28;20122;-77
2023/11/24 06:46:26;;;;;;;0.73;0.30;;;6.70;91.50;;;;;;5096577;28;20047;-78
2023/11/24 06:48:52;;;;;;;1.10;0.38;;;6.70;91.50;;;;;;5114831;28;20072;-78
2023/11/24 06:51:20;;;;;;;0.60;0.20;;;6.70;91.40;;;;;;5096324;28;20042;-76
2023/11/24 06:53:46;;;;;;;0.38;0.20;;;6.70;91.50;;;;;;5096384;28;20089;-76
2023/11/24 06:56:12;;;;;;;1.02;0.40;;;6.70;91.40;;;;;;5078239;28;20052;-76
2023/11/24 06:58:38;;;;;;;0.50;0.43;;;6.60;91.40;;;;;;5094387;28;20539;-76
2023/11/24 07:01:05;;;;;;;0.73;0.30;;;6.60;91.40;;;;;;5096161;28;20036;-75
2023/11/24 07:03:31;;;;;;;1.02;0.32;;;6.60;91.40;;;;;;5079236;28;20040;-76
2023/11/24 07:05:57;;;;;;;0.43;0.20;;;6.60;91.40;;;;;;5096484;28;20043;-76
2023/11/24 07:08:23;;;;;;;1.13;0.30;;;6.50;91.40;;;;;;5079363;28;20043;-77
2023/11/24 07:10:49;;;;;;;0.88;0.30;;;6.50;91.40;;;;;;5095857;28;20047;-77
2023/11/24 07:13:15;;;;;;;0.60;0.30;;;6.50;91.50;;;;;;5095162;28;20051;-77
2023/11/24 07:15:41;;;;;;;0.50;0.25;;;6.50;91.50;;;;;;5096104;28;20040;-76
2023/11/24 07:18:07;;;;;;;0.35;0.10;;;6.40;91.70;;;;;;5079306;28;20043;-76
2023/11/24 07:20:33;;;;;;;0.90;0.20;;;6.40;91.60;;;;;;5078979;28;20035;-77
2023/11/24 07:22:58;;;;;;;0.98;0.40;;;6.40;91.60;;;;;;5079888;28;20039;-77
2023/11/24 07:25:24;;;;;;;1.27;0.30;;;6.40;91.60;;;;;;5114671;28;20035;-76
2023/11/24 07:27:50;;;;;;;1.75;0.30;;;6.40;91.60;;;;;;5095948;28;20793;-75
2023/11/24 07:30:16;;;;;;;1.73;0.38;;;6.30;91.60;;;;;;5079062;28;20051;-76
2023/11/24 07:32:41;;;;;;;1.35;0.30;;;6.50;91.70;;;;;;5113963;28;20047;-75
2023/11/24 07:35:08;;;;;;;0.98;0.30;;;6.30;91.60;;;;;;5078847;28;20039;-75
2023/11/24 07:37:34;;;;;;;2.10;0.38;;;6.30;91.60;;;;;;5078875;28;20035;-76
2023/11/24 07:40:03;;;;;;;0.50;0.30;;;6.20;91.60;;;;;;5113994;28;20138;-76
2023/11/24 07:42:29;;;;;;;0.85;0.20;;;6.20;91.70;;;;;;5079533;28;20058;-76
2023/11/24 07:44:55;;;;;;;1.23;0.40;;;6.20;91.70;;;;;;5078853;28;20126;-75
2023/11/24 07:47:39;;;;;;;2.78;0.30;;;6.20;91.70;;;;;;5094272;28;20036;-77
2023/11/24 07:50:47;;;;;;;0.47;0.20;;;6.20;91.70;;;;;;5079856;28;20094;-76
2023/11/24 07:53:13;;;;;;;0.40;0.30;;;6.20;91.80;;;;;;5030714;28;20041;-76
2023/11/24 07:55:45;;;;;;;0.45;0.25;;;6.30;91.80;;;;;;4982299;28;20065;-77
2023/11/24 07:58:13;;;;;;;2.13;0.30;;;6.30;91.70;;;;;;4998013;28;20046;-77
2023/11/24 08:00:44;;;;;;;1.63;0.43;;;6.40;91.60;;;;;;5014330;28;20073;-77
2023/11/24 08:03:11;;;;;;;2.95;0.40;;;6.30;91.60;;;;;;5014279;28;20045;-77
2023/11/24 08:05:38;;;;;;;1.48;0.32;;;6.40;91.50;;;;;;5014731;28;20037;-75
2023/11/24 08:08:05;;;;;;;1.63;0.28;;;6.30;91.50;;;;;;5014391;28;20057;-76
2023/11/24 08:10:31;;;;;;;1.85;0.25;;;6.40;91.50;;;;;;5030621;28;20411;-77
2023/11/24 08:12:59;;;;;;;0.60;0.25;;;6.30;91.50;;;;;;4998194;28;20045;-77
2023/11/24 08:15:25;;;;;;;0.98;0.40;;;6.30;91.50;;;;;;5014484;28;20053;-76
2023/11/24 08:17:51;;;;;;;0.85;0.30;;;6.30;91.50;;;;;;4997949;28;20054;-76
2023/11/24 08:20:20;;;;;;;0.75;0.20;;;6.40;91.50;;;;;;5014616;28;20041;-77
2023/11/24 08:22:54;;;;;;;1.00;0.40;;;6.30;91.40;;;;;;5075473;28;20044;-77
2023/11/24 08:25:23;;;;;;;0.70;0.40;;;6.40;91.40;;;;;;5077844;28;20051;-77
2023/11/24 08:27:59;;;;;;;1.10;0.40;;;6.30;91.30;;;;;;5093528;28;20165;-76
2023/11/24 08:30:25;;;;;;;0.20;0.10;;;6.40;91.30;;;;;;5062447;28;20519;-76
2023/11/24 08:32:51;;;;;;;0.52;0.30;;;6.20;91.30;;;;;;5076813;28;20039;-75
2023/11/24 08:35:50;;;;;;;1.17;0.40;;;6.40;91.30;;;;;;5032928;28;20132;-77
2023/11/24 08:38:19;;;;;;;1.38;0.40;;;6.30;91.30;;;;;;5000224;28;20491;-75
2023/11/24 08:41:09;;;;;;;2.15;0.30;;;6.30;91.30;;;;;;5013294;28;20466;-76
2023/11/24 08:43:37;;;;;;;0.60;0.30;;;6.30;91.40;;;;;;5030652;28;20144;-75
2023/11/24 08:46:07;;;;;;;0.82;0.30;;;6.20;91.40;;;;;;5013696;28;20099;-76
2023/11/24 08:48:57;;;;;;;0.50;0.30;;;6.20;91.40;;;;;;5013409;28;20045;-77
2023/11/24 08:51:40;;;;;;;0.50;0.13;;;6.10;91.40;;;;;;5006850;28;20046;-77
2023/11/24 08:54:06;;;;;;;0.70;0.25;;;6.10;91.40;;;;;;4912265;29;20052;-76
2023/11/24 08:56:42;;;;;;;0.10;0.10;;;6.00;91.50;;;;;;4913732;29;20050;-76
2023/11/24 08:59:09;;;;;;;0.10;0.10;;;5.90;91.50;;;;;;4898096;29;20090;-77
2023/11/24 09:01:35;;;;;;;0.40;0.13;;;5.90;91.60;;;;;;4900532;29;20048;-76
2023/11/24 09:04:04;;;;;;;0.50;0.28;;;5.90;91.60;;;;;;4932837;29;20052;-76
2023/11/24 09:06:36;;;;;;;0.22;0.20;;;5.90;91.70;;;;;;4932505;29;20134;-76
2023/11/24 09:09:03;;;;;;;0.30;0.20;;;6.00;91.60;;;;;;4932184;29;20047;-75
2023/11/24 09:11:34;;;;;;;0.10;0.10;;;6.10;91.60;;;;;;4930635;29;20048;-76
2023/11/24 09:14:03;;;;;;;0.20;0.20;;;6.10;91.60;;;;;;4932336;29;20058;-76
2023/11/24 09:16:28;;;;;;;0.20;0.20;;;6.10;91.60;;;;;;4932601;29;20142;-75
2023/11/24 09:19:20;;;;;;;0.32;0.10;;;6.10;91.50;;;;;;4982089;28;20124;-77
2023/11/24 09:21:48;;;;;;;1.40;0.20;;;6.10;91.60;;;;;;4983669;28;20046;-76
2023/11/24 09:24:17;;;;;;;0.47;0.20;;;6.10;91.50;;;;;;4993783;28;20061;-75
2023/11/24 09:26:56;;;;;;;1.00;0.47;;;6.30;91.50;;;;;;4977189;28;20518;-77
2023/11/24 09:29:46;;;;;;;0.47;0.22;;;6.20;91.50;;;;;;4995851;28;20372;-74
2023/11/24 09:32:15;;;;;;;0.63;0.20;;;6.10;91.50;;;;;;4986474;28;20077;-74
2023/11/24 09:38:14;;;;;;;0.22;0.10;;;6.30;91.50;;;;;;4913837;29;20145;-74
2023/11/24 09:41:21;;;;;;;0.52;0.20;;;6.30;91.50;;;;;;4898105;29;20052;-76
2023/11/24 09:43:47;;;;;;;2.20;0.20;;;6.20;91.50;;;;;;4921112;29;20130;-74
2023/11/24 09:46:21;;;;;;;1.95;0.30;;;6.10;91.50;;;;;;4934758;29;20043;-76
2023/11/24 09:48:55;;;;;;;0.95;0.20;;;6.20;91.50;;;;;;4906083;29;20046;-75
2023/11/24 09:54:31;;;;;;;0.60;0.20;;;6.30;91.50;;;;;;4923440;29;20049;-76
2023/11/24 09:57:05;;;;;;;0.40;0.20;;;6.40;91.40;;;;;;4904513;29;20039;-77
2023/11/24 09:59:40;;;;;;;0.57;0.22;;;6.30;91.30;;;;;;4920704;29;20082;-77
2023/11/24 10:02:55;;;;;;;0.28;0.17;;;6.50;91.30;;;;;;4914817;28;20565;-77
2023/11/24 10:05:19;;;;;;;0.40;0.30;;;6.40;91.30;;;;;;4923377;29;20043;-77
2023/11/24 10:08:06;;;;;;;;;;;6.50;91.20;;;;;;4920934;29;20541;-77
2023/11/24 10:10:35;;;;;;;0.80;0.28;;;6.50;91.20;;;;;;4921997;29;19974;-77
2023/11/24 10:13:03;;;;;;;2.08;0.52;;;6.60;91.20;;;;;;4916085;29;20044;-75
2023/11/24 10:15:31;;;;;;;1.75;0.40;;;6.60;91.10;;;;;;4930594;29;20062;-75
2023/11/24 10:17:57;;;;;;;0.17;0.17;;;6.60;91.00;;;;;;4938383;29;20043;-75
2023/11/24 10:20:27;;;;;;;1.05;0.40;;;6.50;91.00;;;;;;4938588;29;20050;-75
2023/11/24 10:23:04;;;;;;;0.52;0.22;;;6.70;91.10;;;;;;4922267;29;20059;-75
2023/11/24 10:26:03;;;;;;;2.83;0.50;;;6.60;91.20;;;;;;4896758;29;20052;-76
2023/11/24 10:28:35;;;;;;;0.30;0.22;;;6.50;91.10;;;;;;4873902;29;20045;-76
2023/11/24 10:31:04;;;;;;;1.10;0.30;;;6.70;91.20;;;;;;4887859;29;20047;-76
2023/11/24 10:33:32;;;;;;;0.30;0.20;;;6.50;91.10;;;;;;4954216;28;20691;-76
2023/11/24 10:35:58;;;;;;;2.13;0.47;;;6.40;91.10;;;;;;4915034;29;20050;-75
2023/11/24 10:38:29;;;;;;;0.57;0.20;;;6.30;91.10;;;;;;4951614;29;20054;-74
2023/11/24 10:40:57;;;;;;;0.10;0.10;;;6.20;91.20;;;;;;4938329;29;20058;-75
2023/11/24 10:43:23;;;;;;;0.22;0.10;;;6.40;91.40;;;;;;4936383;28;20181;-75
2023/11/24 10:45:51;;;;;;;0.10;0.10;;;6.40;91.40;;;;;;4996044;28;20053;-76
2023/11/24 10:48:26;;;;;;;0.52;0.20;;;6.40;91.30;;;;;;4979521;28;20137;-75
2023/11/24 10:50:59;;;;;;;0.75;0.20;;;6.40;91.30;;;;;;4995945;28;20049;-76
2023/11/24 10:53:28;;;;;;;0.95;0.25;;;6.40;91.30;;;;;;4979444;28;20528;-75
2023/11/24 10:56:05;;;;;;;0.28;0.20;;;6.30;91.30;;;;;;4989623;28;20071;-77
2023/11/24 10:58:39;;;;;;;0.13;0.13;;;6.40;91.40;;;;;;5036066;28;20044;-75
2023/11/24 11:01:39;;;;;;;0.10;0.10;;;6.40;91.40;;;;;;5020064;28;20045;-74
2023/11/24 11:04:09;;;;;;;0.20;0.20;;;6.50;91.40;;;;;;5034582;28;20120;-76
2023/11/24 11:06:48;;;;;;;2.50;0.30;;;6.70;91.20;;;;;;5056956;28;20047;-74
2023/11/24 11:09:23;;;;;;;0.55;0.17;;;6.70;91.10;;;;;;5078606;28;20074;-75
2023/11/24 11:12:29;;;;;;;0.30;0.30;;;6.70;91.00;;;;;;5114176;28;20472;-76
2023/11/24 11:14:59;;;;;;;1.80;0.30;;;6.80;91.00;;;;;;5094584;28;20397;-76
2023/11/24 11:17:27;;;;;;;0.55;0.10;;;6.80;91.10;;;;;;5096031;28;20070;-76
2023/11/24 11:20:00;;;;;;;0.47;0.30;;;6.90;91.00;;;;;;5096639;28;20031;-76
2023/11/24 11:22:42;;;;;;;0.57;0.30;;;7.00;91.00;;;;;;5018471;28;20095;-76
2023/11/24 11:25:36;;;;;;;0.85;0.38;;;7.10;90.90;;;;;;4975664;28;20076;-76
2023/11/24 11:28:35;;;;;;;1.58;0.28;;;7.10;90.80;;;;;;4975882;28;20102;-75
2023/11/24 11:31:27;;;;;;;0.60;0.40;;;7.10;90.80;;;;;;4971869;28;20493;-75
2023/11/24 11:34:10;;;;;;;2.25;0.40;;;7.00;90.80;;;;;;4971967;28;20427;-73
2023/11/24 11:36:51;;;;;;;0.88;0.32;;;7.00;90.70;;;;;;4971790;28;20042;-75
2023/11/24 11:39:27;;;;;;;0.93;0.35;;;7.10;90.80;;;;;;4972376;28;20053;-75
2023/11/24 11:44:56;;;;;;;1.73;0.35;;;7.20;90.80;;;;;;4932915;29;20466;-75
2023/11/24 11:47:26;;;;;;;1.90;0.65;;;7.50;90.70;;;;;;4918917;29;20046;-74
2023/11/24 11:49:56;;;;;;;2.53;0.50;;;7.40;90.50;;;;;;4918571;29;20051;-74
2023/11/24 11:52:25;;;;;;;3.03;0.40;;;7.40;90.50;;;;;;4922668;28;20046;-74
2023/11/24 11:54:52;;;;;;;1.70;0.40;;;7.50;90.50;;;;;;4959249;28;20058;-75
2023/11/24 11:57:20;;;;;;;3.30;0.60;;;7.60;90.40;;;;;;4975432;28;20590;-76
2023/11/24 11:59:47;;;;;;;2.38;0.93;;;7.60;90.40;;;;;;4975230;28;20030;-74
2023/11/24 12:02:20;;;;;;;3.97;0.70;;;7.70;90.40;;;;;;4964759;28;20042;-76
2023/11/24 12:04:46;;;;;;;2.22;0.55;;;8.10;90.40;;;;;;4972030;28;20082;-77
2023/11/24 12:07:13;;;;;;;1.55;0.52;;;8.10;90.20;;;;;;4941065;28;20058;-77
2023/11/24 12:09:41;;;;;;;0.43;0.30;;;8.20;90.00;;;;;;4957960;28;20508;-75
2023/11/24 12:12:09;;;;;;;3.22;0.57;;;8.40;90.00;;;;;;4972158;28;20050;-75
2023/11/24 12:14:38;;;;;;;2.17;0.60;;;8.40;89.80;;;;;;4998522;28;20493;-75
2023/11/24 12:17:04;;;;;;;1.65;0.50;;;8.60;89.60;;;;;;5095342;28;20039;-74
2023/11/24 12:19:30;;;;;;;1.80;0.60;;;8.50;89.70;;;;;;5113432;28;20122;-74
2023/11/24 12:21:59;;;;;;;3.15;0.88;;;8.50;89.40;;;;;;5095433;28;20043;-75
2023/11/24 12:24:26;;;;;;;4.47;0.70;;;8.60;89.50;;;;;;5095135;28;20050;-73
2023/11/24 12:26:54;;;;;;;1.60;0.60;;;8.50;89.20;;;;;;5095017;28;20041;-75
2023/11/24 12:29:25;;;;;;;3.10;1.05;;;8.60;89.30;;;;;;5113532;28;20079;-76
2023/11/24 12:31:51;;;;;;;2.60;0.80;;;8.50;89.20;;;;;;5094868;28;20079;-75
2023/11/24 12:34:20;;;;;;;2.58;0.70;;;8.40;89.10;;;;;;5094747;28;20304;-75
2023/11/24 12:36:48;;;;;;;3.40;0.70;;;8.30;89.30;;;;;;5061524;28;20093;-74
2023/11/24 12:39:14;;;;;;;3.88;0.90;;;8.20;89.50;;;;;;5093567;28;20156;-74
2023/11/24 12:41:43;;;;;;;4.75;0.90;;;8.10;89.70;;;;;;5078244;28;20088;-74
2023/11/24 12:44:09;;;;;;;2.72;0.70;;;8.10;90.00;;;;;;5095069;28;20089;-76
2023/11/24 12:46:35;;;;;;;3.15;0.70;;;8.10;90.00;;;;;;5086988;28;20101;-75
2023/11/24 12:49:04;;;;;;;2.55;0.68;;;8.20;89.90;;;;;;5060986;28;20039;-75
2023/11/24 12:51:32;;;;;;;1.45;0.63;;;8.10;89.60;;;;;;5078176;28;20512;-75
2023/11/24 12:54:00;;;;;;;2.83;0.68;;;8.20;89.60;;;;;;5095054;28;20050;-75
2023/11/24 12:56:27;;;;;;;1.80;0.57;;;8.10;89.70;;;;;;5112702;28;20123;-73
2023/11/24 12:58:54;;;;;;;4.53;0.90;;;8.00;89.70;;;;;;5061223;28;20035;-75
2023/11/24 13:01:20;;;;;;;3.13;0.85;;;7.90;89.70;;;;;;5094389;28;20039;-73
2023/11/24 13:03:47;;;;;;;2.95;0.70;;;7.80;89.70;;;;;;5094447;28;20047;-74
2023/11/24 13:06:13;;;;;;;6.65;1.00;;;7.80;89.80;;;;;;5112504;28;20389;-75
2023/11/24 13:08:39;;;;;;;3.45;0.93;;;7.80;89.70;;;;;;5094725;28;20046;-74
2023/11/24 13:11:05;;;;;;;2.92;0.68;;;7.80;89.70;;;;;;5094499;28;20050;-75
2023/11/24 13:13:30;;;;;;;3.40;0.77;;;7.80;89.50;;;;;;5079164;28;20500;-75
2023/11/24 13:15:57;;;;;;;2.08;0.88;;;7.80;89.50;;;;;;5098012;28;20042;-75